sensor_id;sensor_type;location;lat;lon;timestamp;pressure;altitude;pressure_sealevel;temperature;humidity
23677;BME280;31493;49.058;12.190;2023-03-18T00:01:05;95636.69;;;5.95;69.05
23677;BME280;31493;49.058;12.190;2023-03-18T00:03:36;95636.91;;;6.06;68.70
23677;BME280;31493;49.058;12.190;2023-03-18T00:06:06;95632.25;;;6.12;69.06
23677;BME280;31493;49.058;12.190;2023-03-18T00:08:34;95640.03;;;5.97;70.16
23677;BME280;31493;49.058;12.190;2023-03-18T00:11:02;95644.81;;;6.03;69.98
23677;BME280;31493;49.058;12.190;2023-03-18T00:13:30;95635.47;;;6.02;69.96
23677;BME280;31493;49.058;12.190;2023-03-18T00:15:58;95636.19;;;6.04;69.59
23677;BME280;31493;49.058;12.190;2023-03-18T00:18:26;95621.97;;;6.12;68.28
23677;BME280;31493;49.058;12.190;2023-03-18T00:20:54;95621.75;;;6.01;68.57
23677;BME280;31493;49.058;12.190;2023-03-18T00:23:22;95627.25;;;5.95;68.73
23677;BME280;31493;49.058;12.190;2023-03-18T00:25:53;95636.13;;;5.74;69.94
23677;BME280;31493;49.058;12.190;2023-03-18T00:28:21;95629.75;;;5.81;69.14
23677;BME280;31493;49.058;12.190;2023-03-18T00:30:48;95634.09;;;6.10;67.03
23677;BME280;31493;49.058;12.190;2023-03-18T00:33:16;95636.56;;;6.12;66.92
23677;BME280;31493;49.058;12.190;2023-03-18T00:35:45;95639.56;;;5.88;68.08
23677;BME280;31493;49.058;12.190;2023-03-18T00:38:14;95647.72;;;5.81;68.66
23677;BME280;31493;49.058;12.190;2023-03-18T00:40:46;95651.22;;;5.64;68.80
23677;BME280;31493;49.058;12.190;2023-03-18T00:43:20;95645.66;;;5.72;68.17
23677;BME280;31493;49.058;12.190;2023-03-18T00:45:48;95652.97;;;5.48;69.40
23677;BME280;31493;49.058;12.190;2023-03-18T00:48:16;95650.78;;;5.87;67.29
23677;BME280;31493;49.058;12.190;2023-03-18T00:50:43;95655.16;;;6.01;65.32
23677;BME280;31493;49.058;12.190;2023-03-18T00:53:13;95647.63;;;5.82;66.67
23677;BME280;31493;49.058;12.190;2023-03-18T00:55:40;95642.66;;;5.79;65.97
23677;BME280;31493;49.058;12.190;2023-03-18T00:58:08;95664.91;;;5.49;67.80
23677;BME280;31493;49.058;12.190;2023-03-18T01:00:35;95656.78;;;5.72;65.68
23677;BME280;31493;49.058;12.190;2023-03-18T01:03:03;95661.56;;;5.62;66.15
23677;BME280;31493;49.058;12.190;2023-03-18T01:05:31;95675.47;;;5.27;68.09
23677;BME280;31493;49.058;12.190;2023-03-18T01:07:58;95660.94;;;5.59;65.82
23677;BME280;31493;49.058;12.190;2023-03-18T01:10:27;95650.47;;;5.78;64.65
23677;BME280;31493;49.058;12.190;2023-03-18T01:12:55;95664.66;;;5.53;65.47
23677;BME280;31493;49.058;12.190;2023-03-18T01:15:23;95666.41;;;5.53;66.77
23677;BME280;31493;49.058;12.190;2023-03-18T01:17:50;95659.59;;;5.52;67.23
23677;BME280;31493;49.058;12.190;2023-03-18T01:20:21;95656.78;;;5.41;66.33
23677;BME280;31493;49.058;12.190;2023-03-18T01:22:49;95651.47;;;5.28;67.50
23677;BME280;31493;49.058;12.190;2023-03-18T01:25:16;95657.38;;;4.97;68.90
23677;BME280;31493;49.058;12.190;2023-03-18T01:27:45;95656.00;;;4.91;69.65
23677;BME280;31493;49.058;12.190;2023-03-18T01:30:12;95648.00;;;5.13;67.37
23677;BME280;31493;49.058;12.190;2023-03-18T01:32:40;95657.25;;;5.00;68.93
23677;BME280;31493;49.058;12.190;2023-03-18T01:35:08;95654.84;;;5.76;64.39
23677;BME280;31493;49.058;12.190;2023-03-18T01:37:37;95658.34;;;5.43;65.83
23677;BME280;31493;49.058;12.190;2023-03-18T01:40:05;95664.97;;;5.31;65.59
23677;BME280;31493;49.058;12.190;2023-03-18T01:42:33;95665.31;;;5.73;63.89
23677;BME280;31493;49.058;12.190;2023-03-18T01:45:17;95663.66;;;5.56;65.12
23677;BME280;31493;49.058;12.190;2023-03-18T01:47:45;95658.50;;;5.72;63.67
23677;BME280;31493;49.058;12.190;2023-03-18T01:50:13;95659.94;;;6.07;62.22
23677;BME280;31493;49.058;12.190;2023-03-18T01:52:42;95667.47;;;5.96;62.34
23677;BME280;31493;49.058;12.190;2023-03-18T01:55:13;95669.28;;;5.78;64.61
23677;BME280;31493;49.058;12.190;2023-03-18T01:57:43;95672.44;;;5.83;64.33
23677;BME280;31493;49.058;12.190;2023-03-18T02:00:11;95675.06;;;5.50;64.93
23677;BME280;31493;49.058;12.190;2023-03-18T02:02:43;95682.19;;;5.45;65.32
23677;BME280;31493;49.058;12.190;2023-03-18T02:05:14;95676.94;;;4.99;67.40
23677;BME280;31493;49.058;12.190;2023-03-18T02:07:43;95674.53;;;4.63;72.13
23677;BME280;31493;49.058;12.190;2023-03-18T02:10:13;95678.31;;;4.39;74.95
23677;BME280;31493;49.058;12.190;2023-03-18T02:12:43;95682.75;;;4.35;76.09
23677;BME280;31493;49.058;12.190;2023-03-18T02:15:13;95688.97;;;4.31;77.12
23677;BME280;31493;49.058;12.190;2023-03-18T02:17:45;95695.63;;;4.16;79.04
23677;BME280;31493;49.058;12.190;2023-03-18T02:20:30;95688.88;;;4.15;80.42
23677;BME280;31493;49.058;12.190;2023-03-18T02:23:07;95682.91;;;4.15;79.77
23677;BME280;31493;49.058;12.190;2023-03-18T02:25:42;95696.69;;;4.47;78.04
23677;BME280;31493;49.058;12.190;2023-03-18T02:28:17;95686.09;;;4.37;77.18
23677;BME280;31493;49.058;12.190;2023-03-18T02:30:47;95687.56;;;4.41;76.95
23677;BME280;31493;49.058;12.190;2023-03-18T02:33:17;95695.56;;;4.70;73.88
23677;BME280;31493;49.058;12.190;2023-03-18T02:35:50;95696.03;;;4.43;74.55
23677;BME280;31493;49.058;12.190;2023-03-18T02:38:18;95684.88;;;4.44;75.07
23677;BME280;31493;49.058;12.190;2023-03-18T02:40:45;95684.78;;;4.46;75.65
23677;BME280;31493;49.058;12.190;2023-03-18T02:43:25;95687.75;;;4.38;76.78
23677;BME280;31493;49.058;12.190;2023-03-18T02:48:58;95690.09;;;4.43;75.43
23677;BME280;31493;49.058;12.190;2023-03-18T02:51:27;95691.22;;;4.54;73.77
23677;BME280;31493;49.058;12.190;2023-03-18T02:53:56;95696.94;;;4.42;74.16
23677;BME280;31493;49.058;12.190;2023-03-18T02:56:26;95696.03;;;4.43;74.05
23677;BME280;31493;49.058;12.190;2023-03-18T02:58:54;95704.03;;;4.37;74.59
23677;BME280;31493;49.058;12.190;2023-03-18T03:01:22;95704.25;;;4.50;73.33
23677;BME280;31493;49.058;12.190;2023-03-18T03:03:49;95692.88;;;4.89;70.39
23677;BME280;31493;49.058;12.190;2023-03-18T03:06:17;95684.31;;;4.72;70.71
23677;BME280;31493;49.058;12.190;2023-03-18T03:08:44;95691.81;;;4.93;68.15
23677;BME280;31493;49.058;12.190;2023-03-18T03:11:11;95690.50;;;4.85;68.22
23677;BME280;31493;49.058;12.190;2023-03-18T03:13:39;95693.25;;;4.98;67.18
23677;BME280;31493;49.058;12.190;2023-03-18T03:16:08;95697.34;;;5.18;66.13
23677;BME280;31493;49.058;12.190;2023-03-18T03:18:35;95700.72;;;5.19;65.73
23677;BME280;31493;49.058;12.190;2023-03-18T03:21:03;95710.13;;;5.02;66.75
23677;BME280;31493;49.058;12.190;2023-03-18T03:23:31;95698.56;;;5.11;65.95
23677;BME280;31493;49.058;12.190;2023-03-18T03:25:58;95700.59;;;5.22;65.66
23677;BME280;31493;49.058;12.190;2023-03-18T03:28:25;95702.16;;;5.40;63.32
23677;BME280;31493;49.058;12.190;2023-03-18T03:30:53;95698.91;;;5.52;62.66
23677;BME280;31493;49.058;12.190;2023-03-18T03:33:23;95703.72;;;5.58;61.79
23677;BME280;31493;49.058;12.190;2023-03-18T03:35:50;95702.00;;;5.75;61.19
23677;BME280;31493;49.058;12.190;2023-03-18T03:38:17;95697.09;;;5.70;61.89
23677;BME280;31493;49.058;12.190;2023-03-18T03:40:45;95713.88;;;5.77;60.84
23677;BME280;31493;49.058;12.190;2023-03-18T03:43:13;95704.41;;;5.78;60.47
23677;BME280;31493;49.058;12.190;2023-03-18T03:45:41;95714.69;;;5.78;61.32
23677;BME280;31493;49.058;12.190;2023-03-18T03:48:09;95724.84;;;5.63;62.15
23677;BME280;31493;49.058;12.190;2023-03-18T03:50:39;95734.78;;;5.38;64.15
23677;BME280;31493;49.058;12.190;2023-03-18T03:53:07;95745.47;;;5.46;64.07
23677;BME280;31493;49.058;12.190;2023-03-18T03:55:35;95732.81;;;5.43;64.11
23677;BME280;31493;49.058;12.190;2023-03-18T03:58:03;95736.16;;;5.12;66.69
23677;BME280;31493;49.058;12.190;2023-03-18T04:00:31;95741.09;;;5.15;67.06
23677;BME280;31493;49.058;12.190;2023-03-18T04:02:58;95746.19;;;5.17;67.75
23677;BME280;31493;49.058;12.190;2023-03-18T04:05:25;95742.88;;;5.30;66.42
23677;BME280;31493;49.058;12.190;2023-03-18T04:07:54;95742.88;;;5.30;66.50
23677;BME280;31493;49.058;12.190;2023-03-18T04:10:25;95744.41;;;5.34;65.53
23677;BME280;31493;49.058;12.190;2023-03-18T04:12:53;95740.22;;;5.16;65.92
23677;BME280;31493;49.058;12.190;2023-03-18T04:15:21;95743.09;;;5.10;67.76
23677;BME280;31493;49.058;12.190;2023-03-18T04:17:49;95746.00;;;5.20;66.66
23677;BME280;31493;49.058;12.190;2023-03-18T04:20:17;95747.75;;;5.19;66.65
23677;BME280;31493;49.058;12.190;2023-03-18T04:22:44;95739.25;;;5.01;68.78
23677;BME280;31493;49.058;12.190;2023-03-18T04:25:13;95729.81;;;5.35;65.75
23677;BME280;31493;49.058;12.190;2023-03-18T04:27:41;95732.06;;;5.41;65.93
23677;BME280;31493;49.058;12.190;2023-03-18T04:30:10;95730.72;;;5.34;65.69
23677;BME280;31493;49.058;12.190;2023-03-18T04:32:37;95734.53;;;5.43;65.58
23677;BME280;31493;49.058;12.190;2023-03-18T04:35:05;95735.72;;;5.53;64.97
23677;BME280;31493;49.058;12.190;2023-03-18T04:37:32;95738.63;;;5.62;63.79
23677;BME280;31493;49.058;12.190;2023-03-18T04:40:01;95731.75;;;5.63;63.49
23677;BME280;31493;49.058;12.190;2023-03-18T04:42:31;95731.09;;;5.59;64.39
23677;BME280;31493;49.058;12.190;2023-03-18T04:44:58;95725.78;;;5.62;64.26
23677;BME280;31493;49.058;12.190;2023-03-18T04:47:25;95739.84;;;5.55;64.53
23677;BME280;31493;49.058;12.190;2023-03-18T04:49:52;95727.44;;;5.63;64.06
23677;BME280;31493;49.058;12.190;2023-03-18T04:52:20;95730.25;;;5.59;64.26
23677;BME280;31493;49.058;12.190;2023-03-18T04:54:47;95729.41;;;5.58;63.78
23677;BME280;31493;49.058;12.190;2023-03-18T04:57:14;95736.47;;;5.55;63.25
23677;BME280;31493;49.058;12.190;2023-03-18T04:59:42;95744.91;;;5.41;65.42
23677;BME280;31493;49.058;12.190;2023-03-18T05:02:09;95742.81;;;5.32;64.69
23677;BME280;31493;49.058;12.190;2023-03-18T05:04:37;95749.53;;;5.34;65.34
23677;BME280;31493;49.058;12.190;2023-03-18T05:07:04;95743.31;;;5.38;64.03
23677;BME280;31493;49.058;12.190;2023-03-18T05:09:31;95740.50;;;5.43;63.69
23677;BME280;31493;49.058;12.190;2023-03-18T05:11:59;95743.81;;;5.45;63.87
23677;BME280;31493;49.058;12.190;2023-03-18T05:14:25;95744.72;;;5.44;65.49
23677;BME280;31493;49.058;12.190;2023-03-18T05:16:54;95748.22;;;5.43;65.97
23677;BME280;31493;49.058;12.190;2023-03-18T05:19:22;95755.16;;;5.41;66.47
23677;BME280;31493;49.058;12.190;2023-03-18T05:21:50;95742.41;;;5.39;67.09
23677;BME280;31493;49.058;12.190;2023-03-18T05:24:17;95739.31;;;5.33;67.64
23677;BME280;31493;49.058;12.190;2023-03-18T05:26:44;95743.72;;;5.31;68.56
23677;BME280;31493;49.058;12.190;2023-03-18T05:29:11;95760.69;;;5.33;70.89
23677;BME280;31493;49.058;12.190;2023-03-18T05:31:38;95753.97;;;5.31;70.32
23677;BME280;31493;49.058;12.190;2023-03-18T05:34:06;95760.03;;;5.30;71.37
23677;BME280;31493;49.058;12.190;2023-03-18T05:36:33;95747.78;;;5.35;71.00
23677;BME280;31493;49.058;12.190;2023-03-18T05:39:01;95766.41;;;5.38;71.36
23677;BME280;31493;49.058;12.190;2023-03-18T05:41:28;95762.19;;;5.37;71.15
23677;BME280;31493;49.058;12.190;2023-03-18T05:43:55;95762.41;;;5.33;72.75
23677;BME280;31493;49.058;12.190;2023-03-18T05:46:22;95759.84;;;5.33;73.30
23677;BME280;31493;49.058;12.190;2023-03-18T05:48:49;95770.91;;;5.35;73.20
23677;BME280;31493;49.058;12.190;2023-03-18T05:51:18;95758.19;;;5.32;72.44
23677;BME280;31493;49.058;12.190;2023-03-18T05:53:45;95758.88;;;5.35;72.53
23677;BME280;31493;49.058;12.190;2023-03-18T05:56:12;95756.56;;;5.31;72.33
23677;BME280;31493;49.058;12.190;2023-03-18T05:58:40;95755.72;;;5.30;71.67
23677;BME280;31493;49.058;12.190;2023-03-18T06:01:07;95752.66;;;5.39;71.02
23677;BME280;31493;49.058;12.190;2023-03-18T06:03:34;95745.78;;;5.40;70.24
23677;BME280;31493;49.058;12.190;2023-03-18T06:06:01;95744.72;;;5.44;70.63
23677;BME280;31493;49.058;12.190;2023-03-18T06:08:29;95749.41;;;5.53;70.22
23677;BME280;31493;49.058;12.190;2023-03-18T06:10:56;95739.78;;;5.57;69.55
23677;BME280;31493;49.058;12.190;2023-03-18T06:13:23;95738.38;;;5.67;67.98
23677;BME280;31493;49.058;12.190;2023-03-18T06:15:55;95737.97;;;5.75;67.00
23677;BME280;31493;49.058;12.190;2023-03-18T06:18:22;95752.31;;;5.79;65.90
23677;BME280;31493;49.058;12.190;2023-03-18T06:20:49;95744.59;;;5.79;65.62
23677;BME280;31493;49.058;12.190;2023-03-18T06:23:16;95762.25;;;5.85;64.42
23677;BME280;31493;49.058;12.190;2023-03-18T06:25:44;95759.38;;;5.91;63.31
23677;BME280;31493;49.058;12.190;2023-03-18T06:28:12;95760.13;;;5.93;62.26
23677;BME280;31493;49.058;12.190;2023-03-18T06:30:39;95753.00;;;5.98;60.93
23677;BME280;31493;49.058;12.190;2023-03-18T06:33:06;95762.25;;;6.01;60.69
23677;BME280;31493;49.058;12.190;2023-03-18T06:35:34;95764.66;;;6.04;61.36
23677;BME280;31493;49.058;12.190;2023-03-18T06:38:01;95761.28;;;6.03;62.44
23677;BME280;31493;49.058;12.190;2023-03-18T06:40:28;95775.09;;;6.01;63.53
23677;BME280;31493;49.058;12.190;2023-03-18T06:42:57;95762.94;;;6.04;63.82
23677;BME280;31493;49.058;12.190;2023-03-18T06:45:24;95778.00;;;5.95;64.65
23677;BME280;31493;49.058;12.190;2023-03-18T06:47:51;95761.09;;;5.90;64.46
23677;BME280;31493;49.058;12.190;2023-03-18T06:50:18;95771.22;;;5.93;64.50
23677;BME280;31493;49.058;12.190;2023-03-18T06:52:47;95770.88;;;5.84;64.48
23677;BME280;31493;49.058;12.190;2023-03-18T06:55:14;95778.31;;;5.88;64.52
23677;BME280;31493;49.058;12.190;2023-03-18T06:57:41;95790.22;;;5.91;65.54
23677;BME280;31493;49.058;12.190;2023-03-18T07:00:10;95781.78;;;5.87;65.32
23677;BME280;31493;49.058;12.190;2023-03-18T07:02:38;95789.81;;;5.81;65.93
23677;BME280;31493;49.058;12.190;2023-03-18T07:05:06;95799.28;;;5.81;66.49
23677;BME280;31493;49.058;12.190;2023-03-18T07:07:33;95791.56;;;5.81;65.75
23677;BME280;31493;49.058;12.190;2023-03-18T07:10:03;95804.28;;;5.84;66.28
23677;BME280;31493;49.058;12.190;2023-03-18T07:12:30;95810.75;;;5.91;65.21
23677;BME280;31493;49.058;12.190;2023-03-18T07:14:57;95807.81;;;5.81;64.89
23677;BME280;31493;49.058;12.190;2023-03-18T07:17:26;95816.28;;;5.83;66.52
23677;BME280;31493;49.058;12.190;2023-03-18T07:19:54;95814.19;;;5.74;65.60
23677;BME280;31493;49.058;12.190;2023-03-18T07:22:21;95814.38;;;5.87;66.01
23677;BME280;31493;49.058;12.190;2023-03-18T07:24:49;95808.72;;;5.80;66.67
23677;BME280;31493;49.058;12.190;2023-03-18T07:27:17;95823.72;;;5.72;66.30
23677;BME280;31493;49.058;12.190;2023-03-18T07:29:44;95822.56;;;5.78;65.50
23677;BME280;31493;49.058;12.190;2023-03-18T07:32:11;95820.25;;;5.73;66.75
23677;BME280;31493;49.058;12.190;2023-03-18T07:34:40;95821.56;;;5.80;66.26
23677;BME280;31493;49.058;12.190;2023-03-18T07:37:07;95828.19;;;5.69;66.42
23677;BME280;31493;49.058;12.190;2023-03-18T07:39:34;95828.88;;;5.88;66.02
23677;BME280;31493;49.058;12.190;2023-03-18T07:42:02;95832.03;;;5.77;65.99
23677;BME280;31493;49.058;12.190;2023-03-18T07:44:32;95830.47;;;5.90;66.33
23677;BME280;31493;49.058;12.190;2023-03-18T07:46:59;95821.31;;;6.02;65.62
23677;BME280;31493;49.058;12.190;2023-03-18T07:49:26;95826.91;;;5.93;65.13
23677;BME280;31493;49.058;12.190;2023-03-18T07:51:55;95837.38;;;6.06;64.58
23677;BME280;31493;49.058;12.190;2023-03-18T07:54:22;95824.28;;;6.10;64.04
23677;BME280;31493;49.058;12.190;2023-03-18T07:56:49;95822.28;;;6.15;63.55
23677;BME280;31493;49.058;12.190;2023-03-18T07:59:16;95826.03;;;6.10;64.29
23677;BME280;31493;49.058;12.190;2023-03-18T08:01:43;95828.03;;;6.21;64.32
23677;BME280;31493;49.058;12.190;2023-03-18T08:04:10;95824.44;;;6.23;62.72
23677;BME280;31493;49.058;12.190;2023-03-18T08:06:40;95812.56;;;6.36;61.89
23677;BME280;31493;49.058;12.190;2023-03-18T08:09:09;95817.94;;;6.47;61.06
23677;BME280;31493;49.058;12.190;2023-03-18T08:11:36;95839.34;;;6.64;60.60
23677;BME280;31493;49.058;12.190;2023-03-18T08:14:03;95837.25;;;6.55;59.37
23677;BME280;31493;49.058;12.190;2023-03-18T08:16:31;95833.72;;;6.57;59.12
23677;BME280;31493;49.058;12.190;2023-03-18T08:18:58;95847.88;;;6.64;58.73
23677;BME280;31493;49.058;12.190;2023-03-18T08:21:25;95837.03;;;6.89;59.93
23677;BME280;31493;49.058;12.190;2023-03-18T08:23:52;95843.59;;;6.79;59.30
23677;BME280;31493;49.058;12.190;2023-03-18T08:26:20;95852.91;;;6.82;57.96
23677;BME280;31493;49.058;12.190;2023-03-18T08:28:47;95846.84;;;6.83;58.16
23677;BME280;31493;49.058;12.190;2023-03-18T08:31:14;95856.84;;;6.87;58.55
23677;BME280;31493;49.058;12.190;2023-03-18T08:33:41;95849.09;;;7.03;58.74
23677;BME280;31493;49.058;12.190;2023-03-18T08:36:08;95844.50;;;6.94;58.16
23677;BME280;31493;49.058;12.190;2023-03-18T08:38:35;95847.47;;;6.86;58.37
23677;BME280;31493;49.058;12.190;2023-03-18T08:41:02;95840.81;;;6.98;58.21
23677;BME280;31493;49.058;12.190;2023-03-18T08:43:31;95847.19;;;7.07;57.98
23677;BME280;31493;49.058;12.190;2023-03-18T08:45:58;95851.22;;;7.11;58.13
23677;BME280;31493;49.058;12.190;2023-03-18T08:48:25;95846.84;;;7.13;58.25
23677;BME280;31493;49.058;12.190;2023-03-18T08:50:52;95849.31;;;7.14;57.36
23677;BME280;31493;49.058;12.190;2023-03-18T08:53:19;95862.28;;;7.13;57.58
23677;BME280;31493;49.058;12.190;2023-03-18T08:55:46;95857.16;;;7.27;57.72
23677;BME280;31493;49.058;12.190;2023-03-18T08:58:13;95852.59;;;7.46;57.56
23677;BME280;31493;49.058;12.190;2023-03-18T09:00:42;95857.66;;;7.48;57.57
23677;BME280;31493;49.058;12.190;2023-03-18T09:03:09;95865.31;;;7.64;56.95
23677;BME280;31493;49.058;12.190;2023-03-18T09:05:36;95860.41;;;7.59;55.66
23677;BME280;31493;49.058;12.190;2023-03-18T09:08:05;95862.16;;;7.73;54.59
23677;BME280;31493;49.058;12.190;2023-03-18T09:10:32;95850.50;;;7.81;54.89
23677;BME280;31493;49.058;12.190;2023-03-18T09:13:00;95851.84;;;8.01;53.65
23677;BME280;31493;49.058;12.190;2023-03-18T09:15:28;95863.56;;;7.93;53.34
23677;BME280;31493;49.058;12.190;2023-03-18T09:17:57;95867.81;;;7.94;52.88
23677;BME280;31493;49.058;12.190;2023-03-18T09:20:24;95862.44;;;8.11;53.19
23677;BME280;31493;49.058;12.190;2023-03-18T09:22:51;95861.69;;;8.38;53.43
23677;BME280;31493;49.058;12.190;2023-03-18T09:25:18;95879.63;;;8.39;52.48
23677;BME280;31493;49.058;12.190;2023-03-18T09:27:46;95862.78;;;8.48;51.25
23677;BME280;31493;49.058;12.190;2023-03-18T09:30:13;95875.97;;;8.43;50.43
23677;BME280;31493;49.058;12.190;2023-03-18T09:32:41;95870.19;;;8.67;51.89
23677;BME280;31493;49.058;12.190;2023-03-18T09:35:10;95864.44;;;8.76;50.36
23677;BME280;31493;49.058;12.190;2023-03-18T09:37:37;95866.88;;;8.92;50.14
23677;BME280;31493;49.058;12.190;2023-03-18T09:40:06;95867.06;;;9.01;50.67
23677;BME280;31493;49.058;12.190;2023-03-18T09:42:50;95867.84;;;9.16;50.55
23677;BME280;31493;49.058;12.190;2023-03-18T09:45:27;95858.34;;;9.17;50.53
23677;BME280;31493;49.058;12.190;2023-03-18T09:48:07;95859.88;;;9.19;48.89
23677;BME280;31493;49.058;12.190;2023-03-18T09:50:47;95858.88;;;9.22;49.24
23677;BME280;31493;49.058;12.190;2023-03-18T09:53:19;95865.69;;;9.23;47.63
23677;BME280;31493;49.058;12.190;2023-03-18T09:55:51;95858.28;;;9.56;48.63
23677;BME280;31493;49.058;12.190;2023-03-18T09:58:23;95856.09;;;9.76;49.53
23677;BME280;31493;49.058;12.190;2023-03-18T10:00:56;95845.25;;;9.83;47.20
23677;BME280;31493;49.058;12.190;2023-03-18T10:03:31;95840.19;;;9.94;49.71
23677;BME280;31493;49.058;12.190;2023-03-18T10:06:05;95857.44;;;9.94;47.54
23677;BME280;31493;49.058;12.190;2023-03-18T10:08:47;95854.50;;;10.11;47.41
23677;BME280;31493;49.058;12.190;2023-03-18T10:11:21;95870.28;;;9.83;46.14
23677;BME280;31493;49.058;12.190;2023-03-18T10:13:57;95865.69;;;10.12;46.64
23677;BME280;31493;49.058;12.190;2023-03-18T10:16:28;95866.16;;;10.42;46.92
23677;BME280;31493;49.058;12.190;2023-03-18T10:18:56;95861.28;;;10.51;50.06
23677;BME280;31493;49.058;12.190;2023-03-18T10:21:32;95873.75;;;10.33;49.25
23677;BME280;31493;49.058;12.190;2023-03-18T10:24:13;95870.78;;;10.26;47.05
23677;BME280;31493;49.058;12.190;2023-03-18T10:26:46;95863.44;;;10.07;46.79
23677;BME280;31493;49.058;12.190;2023-03-18T10:29:30;95871.34;;;10.42;48.66
23677;BME280;31493;49.058;12.190;2023-03-18T10:32:06;95870.13;;;10.35;48.11
23677;BME280;31493;49.058;12.190;2023-03-18T10:34:51;95861.38;;;10.25;47.20
23677;BME280;31493;49.058;12.190;2023-03-18T10:37:33;95859.44;;;10.40;47.72
23677;BME280;31493;49.058;12.190;2023-03-18T10:40:10;95872.13;;;10.32;46.78
23677;BME280;31493;49.058;12.190;2023-03-18T10:42:39;95859.88;;;10.94;48.14
23677;BME280;31493;49.058;12.190;2023-03-18T10:45:12;95851.72;;;11.23;49.36
23677;BME280;31493;49.058;12.190;2023-03-18T10:47:45;95855.31;;;11.44;48.55
23677;BME280;31493;49.058;12.190;2023-03-18T10:50:19;95855.09;;;11.58;47.71
23677;BME280;31493;49.058;12.190;2023-03-18T10:52:53;95850.03;;;11.57;46.80
23677;BME280;31493;49.058;12.190;2023-03-18T10:55:27;95855.94;;;11.48;47.75
23677;BME280;31493;49.058;12.190;2023-03-18T10:57:56;95846.22;;;11.39;51.33
23677;BME280;31493;49.058;12.190;2023-03-18T11:00:28;95846.97;;;11.52;50.90
23677;BME280;31493;49.058;12.190;2023-03-18T11:02:58;95847.09;;;11.62;51.15
23677;BME280;31493;49.058;12.190;2023-03-18T11:05:30;95851.69;;;11.69;49.73
23677;BME280;31493;49.058;12.190;2023-03-18T11:08:02;95859.28;;;11.26;50.00
23677;BME280;31493;49.058;12.190;2023-03-18T11:10:33;95840.28;;;12.39;48.38
23677;BME280;31493;49.058;12.190;2023-03-18T11:13:01;95847.63;;;12.00;48.42
23677;BME280;31493;49.058;12.190;2023-03-18T11:15:28;95849.16;;;11.34;47.83
23677;BME280;31493;49.058;12.190;2023-03-18T11:18:01;95834.97;;;11.73;49.53
23677;BME280;31493;49.058;12.190;2023-03-18T11:20:33;95827.56;;;11.80;48.85
23677;BME280;31493;49.058;12.190;2023-03-18T11:23:14;95824.91;;;12.58;48.92
23677;BME280;31493;49.058;12.190;2023-03-18T11:25:45;95823.03;;;12.38;49.12
23677;BME280;31493;49.058;12.190;2023-03-18T11:28:20;95821.66;;;13.09;52.99
23677;BME280;31493;49.058;12.190;2023-03-18T11:30:54;95810.50;;;13.81;50.24
23677;BME280;31493;49.058;12.190;2023-03-18T11:33:24;95816.28;;;13.64;47.46
23677;BME280;31493;49.058;12.190;2023-03-18T11:35:52;95822.63;;;13.71;49.86
23677;BME280;31493;49.058;12.190;2023-03-18T11:38:25;95828.72;;;13.07;47.21
23677;BME280;31493;49.058;12.190;2023-03-18T11:41:04;95815.56;;;13.62;48.42
23677;BME280;31493;49.058;12.190;2023-03-18T11:43:35;95828.25;;;13.55;47.69
23677;BME280;31493;49.058;12.190;2023-03-18T11:46:04;95818.09;;;14.44;47.86
23677;BME280;31493;49.058;12.190;2023-03-18T11:48:33;95817.06;;;14.85;47.68
23677;BME280;31493;49.058;12.190;2023-03-18T11:51:28;95824.78;;;13.24;47.55
23677;BME280;31493;49.058;12.190;2023-03-18T11:54:28;95810.47;;;14.12;46.36
23677;BME280;31493;49.058;12.190;2023-03-18T11:57:01;95811.06;;;14.35;45.96
23677;BME280;31493;49.058;12.190;2023-03-18T11:59:41;95796.88;;;14.48;46.69
23677;BME280;31493;49.058;12.190;2023-03-18T12:02:28;95800.66;;;14.25;44.49
23677;BME280;31493;49.058;12.190;2023-03-18T12:05:25;95795.41;;;14.15;49.63
23677;BME280;31493;49.058;12.190;2023-03-18T12:08:02;95791.84;;;14.16;46.63
23677;BME280;31493;49.058;12.190;2023-03-18T12:10:36;95794.19;;;14.29;46.04
23677;BME280;31493;49.058;12.190;2023-03-18T12:13:15;95784.16;;;14.94;47.48
23677;BME280;31493;49.058;12.190;2023-03-18T12:15:53;95789.75;;;15.94;42.29
23677;BME280;31493;49.058;12.190;2023-03-18T12:18:47;95776.81;;;15.65;45.21
23677;BME280;31493;49.058;12.190;2023-03-18T12:21:43;95775.13;;;15.74;43.56
23677;BME280;31493;49.058;12.190;2023-03-18T12:24:25;95779.69;;;15.62;42.59
23677;BME280;31493;49.058;12.190;2023-03-18T12:27:02;95777.06;;;15.52;47.12
23677;BME280;31493;49.058;12.190;2023-03-18T12:29:52;95772.34;;;16.12;45.31
23677;BME280;31493;49.058;12.190;2023-03-18T12:32:27;95773.34;;;15.65;42.53
23677;BME280;31493;49.058;12.190;2023-03-18T12:35:07;95774.06;;;15.94;43.65
23677;BME280;31493;49.058;12.190;2023-03-18T12:37:47;95764.91;;;15.90;42.39
23677;BME280;31493;49.058;12.190;2023-03-18T12:43:27;95750.06;;;14.28;47.46
23677;BME280;31493;49.058;12.190;2023-03-18T12:46:01;95754.09;;;13.91;48.85
23677;BME280;31493;49.058;12.190;2023-03-18T12:48:33;95756.91;;;13.69;46.08
23677;BME280;31493;49.058;12.190;2023-03-18T12:51:07;95743.38;;;14.35;46.15
23677;BME280;31493;49.058;12.190;2023-03-18T12:53:37;95744.22;;;14.55;47.18
23677;BME280;31493;49.058;12.190;2023-03-18T12:56:11;95749.50;;;15.50;48.32
23677;BME280;31493;49.058;12.190;2023-03-18T12:58:43;95748.50;;;14.56;45.89
23677;BME280;31493;49.058;12.190;2023-03-18T13:01:14;95746.84;;;14.84;44.05
23677;BME280;31493;49.058;12.190;2023-03-18T13:03:46;95735.66;;;15.87;43.06
23677;BME280;31493;49.058;12.190;2023-03-18T13:06:19;95740.44;;;15.44;45.40
23677;BME280;31493;49.058;12.190;2023-03-18T13:09:04;95734.47;;;15.71;47.55
23677;BME280;31493;49.058;12.190;2023-03-18T13:11:44;95729.03;;;14.50;44.48
23677;BME280;31493;49.058;12.190;2023-03-18T13:14:23;95723.44;;;15.77;45.26
23677;BME280;31493;49.058;12.190;2023-03-18T13:16:54;95745.19;;;15.02;43.10
23677;BME280;31493;49.058;12.190;2023-03-18T13:19:23;95732.56;;;14.39;44.00